PWSweather.com
Personal Weather Stations
Station Observations
WARREN
Narre Warren , MelbourneAU

Narre Warren MelbourneAU

Lat: -38.0314269, Lon: 145.3160851

Elevation: 24

Station Type: Digiteck

http://www.aussiedownunder.net/

Latest ConditionsUpdated 2:15:02 PM GMT+10:10 Friday, Dec 14, 2018
Currently Today's Max Today's Min Today's Average
Temperature 71.6°F22.0°C 78.6°F25.9°C 58.6°F14.8°C 65.5°F18.6°C
Dew Point 62.9°F17.2°C 64.3°F17.9°C 57.9°F14.4°C 60.9°F16.1°C
Winds 2.8 mph SW4.5 kmh SW 3.5 mph -5.6 kmh - - 0.8 mph 1.3 kmh
Wind Gusts 8.3 mph13.4 kmh 8.3 mph13.4 kmh - -
Humidity 74% 100% 60% 86%
Pressure 29.64 in1003.7 mb 29.66 in1004.4 mb 29.48 in998.3 mb -
Precipitation - 0.01 in0.3 mm - -
Hour Temp Dew Point Humidity Winds Wind Gusts Pressure Precip Precip Rate Daily Precip Total
02:15 PM 71.6°F22.0°C 62.9°F17.2°C 74% 2.8 mph SW4.5 kmh SW 8.3 mph13.4 kmh 29.64 in1003.7 mb 0.00 in0.0 mm 0.00 in0.0 mm 0.01 in0.3 mm
02:00 PM 72.1°F22.3°C 63.0°F17.2°C 73% 2.8 mph WSW4.5 kmh WSW 6.0 mph9.7 kmh 29.63 in1003.4 mb 0.00 in0.0 mm 0.00 in0.0 mm 0.01 in0.3 mm
01:45 PM 73.2°F22.9°C 64.1°F17.8°C 73% 2.9 mph WSW4.7 kmh WSW 6.0 mph9.7 kmh 29.63 in1003.4 mb 0.00 in0.0 mm 0.00 in0.0 mm 0.01 in0.3 mm
01:30 PM 74.3°F23.5°C 64.3°F17.9°C 71% 2.5 mph SW4.0 kmh SW 7.6 mph12.2 kmh 29.63 in1003.4 mb 0.00 in0.0 mm 0.00 in0.0 mm 0.01 in0.3 mm
01:15 PM 76.3°F24.6°C 64.1°F17.8°C 66% 3.5 mph WSW5.6 kmh WSW 6.9 mph11.1 kmh 29.63 in1003.4 mb 0.00 in0.0 mm 0.00 in0.0 mm 0.01 in0.3 mm
01:00 PM 74.8°F23.8°C 63.6°F17.6°C 68% 0.9 mph W1.4 kmh W 5.4 mph8.7 kmh 29.64 in1003.7 mb 0.00 in0.0 mm 0.00 in0.0 mm 0.01 in0.3 mm
12:45 PM 76.5°F24.7°C 63.4°F17.4°C 64% 2.3 mph W3.7 kmh W 6.9 mph11.1 kmh 29.65 in1004.1 mb 0.00 in0.0 mm 0.00 in0.0 mm 0.01 in0.3 mm
12:30 PM 78.6°F25.9°C 63.6°F17.6°C 60% 2.5 mph NW4.0 kmh NW 7.6 mph12.2 kmh 29.65 in1004.1 mb 0.00 in0.0 mm 0.00 in0.0 mm 0.01 in0.3 mm
12:15 PM 75.2°F24.0°C 63.1°F17.3°C 66% 2.0 mph SSW3.2 kmh SSW 6.0 mph9.7 kmh 29.65 in1004.1 mb 0.00 in0.0 mm 0.00 in0.0 mm 0.01 in0.3 mm
12:00 PM 75.2°F24.0°C 63.1°F17.3°C 66% 1.1 mph WNW1.8 kmh WNW 4.5 mph7.2 kmh 29.66 in1004.4 mb 0.00 in0.0 mm 0.00 in0.0 mm 0.01 in0.3 mm
11:45 AM 74.8°F23.8°C 63.2°F17.3°C 67% 0.5 mph E0.8 kmh E 3.1 mph5.0 kmh 29.66 in1004.4 mb 0.00 in0.0 mm 0.00 in0.0 mm 0.01 in0.3 mm
11:30 AM 77.7°F25.4°C 63.2°F17.3°C 61% 1.7 mph W2.7 kmh W 6.0 mph9.7 kmh 29.65 in1004.1 mb 0.00 in0.0 mm 0.00 in0.0 mm 0.01 in0.3 mm
11:15 AM 76.3°F24.6°C 63.2°F17.3°C 64% 1.8 mph WSW2.9 kmh WSW 6.0 mph9.7 kmh 29.65 in1004.1 mb 0.00 in0.0 mm 0.00 in0.0 mm 0.01 in0.3 mm
11:00 AM 73.9°F23.3°C 62.7°F17.1°C 68% 1.9 mph SSW3.1 kmh SSW 4.5 mph7.2 kmh 29.64 in1003.7 mb 0.00 in0.0 mm 0.00 in0.0 mm 0.01 in0.3 mm
10:45 AM 71.1°F21.7°C 62.0°F16.7°C 73% 1.8 mph SW2.9 kmh SW 5.4 mph8.7 kmh 29.64 in1003.7 mb 0.00 in0.0 mm 0.00 in0.0 mm 0.01 in0.3 mm
10:30 AM 69.8°F21.0°C 61.2°F16.2°C 74% 1.4 mph WSW2.3 kmh WSW 6.9 mph11.1 kmh 29.63 in1003.4 mb 0.00 in0.0 mm 0.00 in0.0 mm 0.01 in0.3 mm
10:15 AM 70.0°F21.1°C 60.6°F15.9°C 72% 1.5 mph SW2.4 kmh SW 4.5 mph7.2 kmh 29.64 in1003.7 mb 0.00 in0.0 mm 0.00 in0.0 mm 0.01 in0.3 mm
10:00 AM 71.2°F21.8°C 62.2°F16.8°C 73% 0.9 mph WNW1.4 kmh WNW 4.5 mph7.2 kmh 29.65 in1004.1 mb 0.00 in0.0 mm 0.00 in0.0 mm 0.01 in0.3 mm
09:45 AM 70.7°F21.5°C 62.8°F17.1°C 76% 1.0 mph N1.6 kmh N 4.5 mph7.2 kmh 29.65 in1004.1 mb 0.00 in0.0 mm 0.00 in0.0 mm 0.01 in0.3 mm
09:30 AM 67.1°F19.5°C 60.7°F15.9°C 80% 0.9 mph NNE1.4 kmh NNE 4.5 mph7.2 kmh 29.66 in1004.4 mb 0.00 in0.0 mm 0.00 in0.0 mm 0.01 in0.3 mm
09:15 AM 67.1°F19.5°C 61.8°F16.6°C 83% 0.8 mph WNW1.3 kmh WNW 3.8 mph6.1 kmh 29.66 in1004.4 mb 0.00 in0.0 mm 0.00 in0.0 mm 0.01 in0.3 mm
09:00 AM 66.4°F19.1°C 61.8°F16.6°C 85% 0.7 mph WNW1.1 kmh WNW 4.5 mph7.2 kmh 29.66 in1004.4 mb 0.00 in0.0 mm 0.00 in0.0 mm 0.01 in0.3 mm
08:45 AM 65.7°F18.7°C 61.7°F16.5°C 87% 1.3 mph N2.1 kmh N 4.5 mph7.2 kmh 29.65 in1004.1 mb 0.00 in0.0 mm 0.00 in0.0 mm 0.01 in0.3 mm
08:30 AM 65.5°F18.6°C 62.2°F16.8°C 89% 1.2 mph NNE1.9 kmh NNE 5.4 mph8.7 kmh 29.65 in1004.1 mb 0.00 in0.0 mm 0.00 in0.0 mm 0.01 in0.3 mm
08:15 AM 65.5°F18.6°C 62.8°F17.1°C 91% 0.6 mph N1.0 kmh N 6.0 mph9.7 kmh 29.64 in1003.7 mb 0.00 in0.0 mm 0.00 in0.0 mm 0.01 in0.3 mm
08:00 AM 64.9°F18.3°C 62.9°F17.2°C 93% 0.3 mph E0.5 kmh E 3.1 mph5.0 kmh 29.63 in1003.4 mb 0.00 in0.0 mm 0.00 in0.0 mm 0.01 in0.3 mm
07:45 AM 64.8°F18.2°C 63.3°F17.4°C 95% 0.5 mph N0.8 kmh N 3.8 mph6.1 kmh 29.62 in1003.0 mb 0.00 in0.0 mm 0.00 in0.0 mm 0.01 in0.3 mm
07:30 AM 64.2°F17.9°C 62.8°F17.1°C 95% 0.7 mph N1.1 kmh N 5.4 mph8.7 kmh 29.62 in1003.0 mb 0.00 in0.0 mm 0.00 in0.0 mm 0.01 in0.3 mm
07:15 AM 63.9°F17.7°C 62.7°F17.1°C 96% 1.0 mph NE1.6 kmh NE 4.5 mph7.2 kmh 29.61 in1002.7 mb 0.00 in0.0 mm 0.00 in0.0 mm 0.01 in0.3 mm
07:00 AM 63.7°F17.6°C 62.8°F17.1°C 97% 0.3 mph NE0.5 kmh NE 2.2 mph3.5 kmh 29.61 in1002.7 mb 0.00 in0.0 mm 0.00 in0.0 mm 0.01 in0.3 mm
06:45 AM 63.0°F17.2°C 62.1°F16.7°C 97% 0.2 mph ENE0.3 kmh ENE 3.1 mph5.0 kmh 29.62 in1003.0 mb 0.00 in0.0 mm 0.00 in0.0 mm 0.01 in0.3 mm
06:30 AM 62.1°F16.7°C 61.2°F16.2°C 97% 0.3 mph ESE0.5 kmh ESE 3.1 mph5.0 kmh 29.61 in1002.7 mb 0.00 in0.0 mm 0.00 in0.0 mm 0.01 in0.3 mm
06:15 AM 61.3°F16.3°C 60.5°F15.8°C 97% 0.1 mph ESE0.2 kmh ESE 2.2 mph3.5 kmh 29.60 in1002.4 mb 0.00 in0.0 mm 0.00 in0.0 mm 0.01 in0.3 mm
06:00 AM 61.2°F16.2°C 60.3°F15.7°C 97% 0.2 mph SE0.3 kmh SE 2.2 mph3.5 kmh 29.59 in1002.0 mb 0.00 in0.0 mm 0.00 in0.0 mm 0.01 in0.3 mm
05:45 AM 61.2°F16.2°C 60.3°F15.7°C 97% Calm Calm 0.7 mph1.1 kmh 29.57 in1001.4 mb 0.00 in0.0 mm 0.00 in0.0 mm 0.01 in0.3 mm
05:30 AM 59.9°F15.5°C 59.9°F15.5°C 100% Calm Calm -- 29.55 in1000.7 mb 0.00 in0.0 mm 0.00 in0.0 mm 0.01 in0.3 mm
05:15 AM 59.2°F15.1°C 58.3°F14.6°C 97% 0.3 mph N0.5 kmh N 2.2 mph3.5 kmh 29.56 in1001.0 mb 0.00 in0.0 mm 0.00 in0.0 mm 0.01 in0.3 mm
05:00 AM 58.6°F14.8°C 58.7°F14.8°C 100% Calm Calm 1.6 mph2.6 kmh 29.56 in1001.0 mb 0.00 in0.0 mm 0.00 in0.0 mm 0.01 in0.3 mm
04:45 AM 58.6°F14.8°C 58.7°F14.8°C 100% Calm Calm 0.7 mph1.1 kmh 29.55 in1000.7 mb 0.00 in0.0 mm 0.00 in0.0 mm 0.01 in0.3 mm
04:30 AM 58.6°F14.8°C 58.7°F14.8°C 100% Calm Calm 0.7 mph1.1 kmh 29.56 in1001.0 mb 0.00 in0.0 mm 0.00 in0.0 mm 0.01 in0.3 mm
04:15 AM 59.2°F15.1°C 58.3°F14.6°C 97% Calm Calm 0.7 mph1.1 kmh 29.56 in1001.0 mb 0.00 in0.0 mm 0.00 in0.0 mm 0.01 in0.3 mm
04:00 AM 59.0°F15.0°C 58.2°F14.6°C 97% Calm Calm 1.6 mph2.6 kmh 29.55 in1000.7 mb 0.00 in0.0 mm 0.00 in0.0 mm 0.01 in0.3 mm
03:45 AM 58.8°F14.9°C 58.0°F14.4°C 97% Calm Calm 1.6 mph2.6 kmh 29.55 in1000.7 mb 0.00 in0.0 mm 0.00 in0.0 mm 0.01 in0.3 mm
03:30 AM 58.8°F14.9°C 58.0°F14.4°C 97% Calm Calm 0.7 mph1.1 kmh 29.55 in1000.7 mb 0.01 in0.3 mm 0.00 in0.0 mm 0.01 in0.3 mm
03:15 AM 59.0°F15.0°C 57.9°F14.4°C 96% Calm Calm 0.7 mph1.1 kmh 29.54 in1000.3 mb 0.01 in0.3 mm 0.00 in0.0 mm 0.01 in0.3 mm
03:00 AM 59.4°F15.2°C 58.2°F14.6°C 96% Calm Calm 0.7 mph1.1 kmh 29.54 in1000.3 mb 0.01 in0.3 mm 0.00 in0.0 mm 0.01 in0.3 mm
02:45 AM 59.4°F15.2°C 58.2°F14.6°C 96% 0.1 mph E0.2 kmh E 1.6 mph2.6 kmh 29.53 in1000.0 mb 0.01 in0.3 mm 0.04 in1.0 mm 0.01 in0.3 mm
02:30 AM 59.0°F15.0°C 57.9°F14.4°C 96% Calm Calm 0.7 mph1.1 kmh 29.53 in1000.0 mb 0.00 in0.0 mm 0.00 in0.0 mm 0.00 in0.0 mm
02:15 AM 59.2°F15.1°C 58.1°F14.5°C 96% Calm Calm 0.7 mph1.1 kmh 29.53 in1000.0 mb 0.00 in0.0 mm 0.00 in0.0 mm 0.00 in0.0 mm
02:00 AM 59.4°F15.2°C 58.2°F14.6°C 96% Calm Calm -- 29.53 in1000.0 mb 0.00 in0.0 mm 0.00 in0.0 mm 0.00 in0.0 mm
01:45 AM 59.7°F15.4°C 58.6°F14.8°C 96% Calm Calm 0.7 mph1.1 kmh 29.53 in1000.0 mb 0.00 in0.0 mm 0.00 in0.0 mm 0.00 in0.0 mm
01:30 AM 59.7°F15.4°C 58.6°F14.8°C 96% Calm Calm 0.7 mph1.1 kmh 29.52 in999.7 mb 0.00 in0.0 mm 0.00 in0.0 mm 0.00 in0.0 mm
01:15 AM 59.7°F15.4°C 58.3°F14.6°C 95% Calm Calm -- 29.52 in999.7 mb 0.00 in0.0 mm 0.00 in0.0 mm 0.00 in0.0 mm
01:00 AM 60.3°F15.7°C 58.8°F14.9°C 95% Calm Calm 0.7 mph1.1 kmh 29.51 in999.3 mb 0.00 in0.0 mm 0.00 in0.0 mm 0.00 in0.0 mm
12:45 AM 60.4°F15.8°C 59.0°F15.0°C 95% Calm Calm 1.6 mph2.6 kmh 29.50 in999.0 mb 0.00 in0.0 mm 0.00 in0.0 mm 0.00 in0.0 mm
12:30 AM 60.6°F15.9°C 59.2°F15.1°C 95% Calm Calm 0.7 mph1.1 kmh 29.50 in999.0 mb 0.00 in0.0 mm 0.00 in0.0 mm 0.00 in0.0 mm
12:15 AM 60.8°F16.0°C 59.1°F15.1°C 94% Calm Calm 1.6 mph2.6 kmh 29.50 in999.0 mb 0.00 in0.0 mm 0.00 in0.0 mm 0.00 in0.0 mm
12:00 AM 60.8°F16.0°C 59.1°F15.1°C 94% Calm Calm 1.6 mph2.6 kmh 29.48 in998.3 mb 0.00 in0.0 mm 0.00 in0.0 mm 0.00 in0.0 mm